createdAt,value
2022-12-09T00:02:02.636Z,12.63
2022-12-09T00:04:29.472Z,13.00
2022-12-09T00:06:55.963Z,12.15
2022-12-09T00:09:22.581Z,12.50
2022-12-09T00:11:49.136Z,12.77
2022-12-09T00:14:15.651Z,12.63
2022-12-09T00:16:42.247Z,12.80
2022-12-09T00:19:08.891Z,12.88
2022-12-09T00:21:35.426Z,12.52
2022-12-09T00:24:07.676Z,12.40
2022-12-09T00:26:34.477Z,11.77
2022-12-09T00:29:01.677Z,12.88
2022-12-09T00:31:34.138Z,12.50
2022-12-09T00:34:03.671Z,13.63
2022-12-09T00:36:30.221Z,12.85
2022-12-09T00:38:58.453Z,12.60
2022-12-09T00:41:25.729Z,12.80
2022-12-09T00:43:52.555Z,12.80
2022-12-09T00:46:19.125Z,13.60
2022-12-09T00:48:46.565Z,13.32
2022-12-09T00:51:16.488Z,13.43
2022-12-09T00:53:44.019Z,12.52
2022-12-09T00:56:10.694Z,13.07
2022-12-09T00:58:37.260Z,14.27
2022-12-09T01:01:04.142Z,14.02
2022-12-09T01:03:30.989Z,13.30
2022-12-09T01:05:57.956Z,13.38
2022-12-09T01:08:24.558Z,13.25
2022-12-09T01:10:51.124Z,14.15
2022-12-09T01:13:17.662Z,14.88
2022-12-09T01:15:44.879Z,14.38
2022-12-09T01:18:12.606Z,13.85
2022-12-09T01:20:39.357Z,14.73
2022-12-09T01:23:05.849Z,15.10
2022-12-09T01:25:32.351Z,13.98
2022-12-09T01:27:58.744Z,14.65
2022-12-09T01:30:25.362Z,15.63
2022-12-09T01:32:51.889Z,15.18
2022-12-09T01:35:18.880Z,15.75
2022-12-09T01:37:45.261Z,15.50
2022-12-09T01:40:16.935Z,15.98
2022-12-09T01:42:44.237Z,14.93
2022-12-09T01:45:19.908Z,14.18
2022-12-09T01:47:54.378Z,15.57
2022-12-09T01:50:21.355Z,14.52
2022-12-09T01:52:50.039Z,15.30
2022-12-09T01:55:17.035Z,14.85
2022-12-09T01:57:45.256Z,14.65
2022-12-09T02:00:13.247Z,15.00
2022-12-09T02:02:43.692Z,15.50
2022-12-09T02:05:11.384Z,13.75
2022-12-09T02:07:38.172Z,14.45
2022-12-09T02:10:11.019Z,14.88
2022-12-09T02:12:47.293Z,15.68
2022-12-09T02:15:21.030Z,16.10
2022-12-09T02:17:47.784Z,15.20
2022-12-09T02:20:39.097Z,15.38
2022-12-09T02:23:11.509Z,15.60
2022-12-09T02:26:00.866Z,14.63
2022-12-09T02:28:45.952Z,14.85
2022-12-09T02:31:31.146Z,14.75
2022-12-09T02:34:12.229Z,16.42
2022-12-09T02:36:51.681Z,15.75
2022-12-09T02:39:26.039Z,14.77
2022-12-09T02:41:54.763Z,15.18
2022-12-09T02:44:24.376Z,15.50
2022-12-09T02:46:53.334Z,16.23
2022-12-09T02:49:24.085Z,15.07
2022-12-09T02:51:51.127Z,12.88
2022-12-09T02:54:20.544Z,12.60
2022-12-09T02:56:53.700Z,12.73
2022-12-09T02:59:20.763Z,11.48
2022-12-09T03:02:18.618Z,11.13
2022-12-09T03:04:55.031Z,11.10
2022-12-09T03:08:00.415Z,11.80
2022-12-09T03:10:38.534Z,11.27
2022-12-09T03:13:23.834Z,10.32
2022-12-09T03:16:02.873Z,10.48
2022-12-09T03:18:31.808Z,11.70
2022-12-09T03:20:58.647Z,11.52
2022-12-09T03:23:27.591Z,11.02
2022-12-09T03:25:55.477Z,11.52
2022-12-09T03:28:30.541Z,11.73
2022-12-09T03:31:03.113Z,12.20
2022-12-09T03:33:31.424Z,11.88
2022-12-09T03:36:02.592Z,11.32
2022-12-09T03:38:35.062Z,11.52
2022-12-09T03:41:23.725Z,12.27
2022-12-09T03:43:56.088Z,12.73
2022-12-09T03:46:23.753Z,12.80
2022-12-09T03:48:50.739Z,11.68
2022-12-09T03:51:29.544Z,12.75
2022-12-09T03:54:18.720Z,11.95
2022-12-09T03:56:49.286Z,12.05
2022-12-09T03:59:16.191Z,12.38
2022-12-09T04:01:45.250Z,12.07
2022-12-09T04:04:12.221Z,11.27
2022-12-09T04:06:39.017Z,13.02
2022-12-09T04:09:06.171Z,12.23
2022-12-09T04:11:33.711Z,11.80
2022-12-09T04:14:00.472Z,11.25
2022-12-09T04:16:27.189Z,12.60
2022-12-09T04:18:54.103Z,11.77
2022-12-09T04:21:20.796Z,12.35
2022-12-09T04:23:47.459Z,12.13
2022-12-09T04:26:17.609Z,12.18
2022-12-09T04:28:44.113Z,12.73
2022-12-09T04:31:13.174Z,11.75
2022-12-09T04:33:40.636Z,12.15
2022-12-09T04:36:09.769Z,12.68
2022-12-09T04:38:36.200Z,12.27
2022-12-09T04:41:03.972Z,12.45
2022-12-09T04:43:31.441Z,12.43
2022-12-09T04:46:03.495Z,12.55
2022-12-09T04:48:30.377Z,13.55
2022-12-09T04:50:57.213Z,13.45
2022-12-09T04:53:24.287Z,12.80
2022-12-09T04:55:59.495Z,13.20
2022-12-09T05:00:52.766Z,12.30
2022-12-09T05:03:19.173Z,12.07
2022-12-09T05:05:46.009Z,12.70
2022-12-09T05:08:12.688Z,12.75
2022-12-09T05:10:39.751Z,12.57
2022-12-09T05:13:07.148Z,13.00
2022-12-09T05:15:33.664Z,13.15
2022-12-09T05:18:02.377Z,13.82
2022-12-09T05:20:29.877Z,13.57
2022-12-09T05:22:56.701Z,13.35
2022-12-09T05:25:24.003Z,14.02
2022-12-09T05:27:50.889Z,13.43
2022-12-09T05:30:17.432Z,13.45
2022-12-09T05:32:44.259Z,12.90
2022-12-09T05:35:11.513Z,13.68
2022-12-09T05:37:38.014Z,13.80
2022-12-09T05:40:06.100Z,13.50
2022-12-09T05:42:36.479Z,12.88
2022-12-09T05:45:08.273Z,13.70
2022-12-09T05:47:34.701Z,13.88
2022-12-09T05:50:06.126Z,14.73
2022-12-09T05:52:36.472Z,13.88
2022-12-09T05:55:08.836Z,16.00
2022-12-09T05:57:35.907Z,14.07
2022-12-09T06:00:05.247Z,12.95
2022-12-09T06:02:33.032Z,13.52
2022-12-09T06:05:00.103Z,14.07
2022-12-09T06:07:26.954Z,14.48
2022-12-09T06:09:54.026Z,14.27
2022-12-09T06:12:20.494Z,13.88
2022-12-09T06:14:47.189Z,14.73
2022-12-09T06:17:14.275Z,13.23
2022-12-09T06:19:40.862Z,13.70
2022-12-09T06:22:07.795Z,14.93
2022-12-09T06:24:35.217Z,13.55
2022-12-09T06:27:02.162Z,13.60
2022-12-09T06:29:28.876Z,13.25
2022-12-09T06:31:55.592Z,13.25
2022-12-09T06:34:22.349Z,13.90
2022-12-09T06:36:49.163Z,12.85
2022-12-09T06:39:15.912Z,13.18
2022-12-09T06:41:43.485Z,14.25
2022-12-09T06:44:18.407Z,13.20
2022-12-09T06:46:49.696Z,13.43
2022-12-09T06:49:16.645Z,13.60
2022-12-09T06:51:43.371Z,15.02
2022-12-09T06:54:10.354Z,13.50
2022-12-09T06:56:36.867Z,13.82
2022-12-09T06:59:06.650Z,13.95
2022-12-09T07:01:33.663Z,13.20
2022-12-09T07:04:01.139Z,13.80
2022-12-09T07:06:39.683Z,13.73
2022-12-09T07:09:15.846Z,14.20
2022-12-09T07:11:43.395Z,13.82
2022-12-09T07:14:10.740Z,13.77
2022-12-09T07:16:38.329Z,13.60
2022-12-09T07:19:06.094Z,14.20
2022-12-09T07:21:33.810Z,13.82
2022-12-09T07:24:02.262Z,14.90
2022-12-09T07:26:33.650Z,14.27
2022-12-09T07:29:04.544Z,14.43
2022-12-09T07:31:31.853Z,15.15
2022-12-09T07:33:59.956Z,14.63
2022-12-09T07:36:29.669Z,14.38
2022-12-09T07:38:58.104Z,14.57
2022-12-09T07:41:25.229Z,13.90
2022-12-09T07:43:51.773Z,13.93
2022-12-09T07:46:20.801Z,14.35
2022-12-09T07:48:49.336Z,14.88
2022-12-09T07:51:16.422Z,14.85
2022-12-09T07:53:43.296Z,14.15
2022-12-09T07:56:14.783Z,14.30
2022-12-09T07:58:42.461Z,15.35
2022-12-09T08:01:12.063Z,14.50
2022-12-09T08:03:40.306Z,13.43
2022-12-09T08:06:07.529Z,15.27
2022-12-09T08:08:34.853Z,13.73
2022-12-09T08:11:13.071Z,14.57
2022-12-09T08:13:42.259Z,13.30
2022-12-09T08:16:10.827Z,14.82
2022-12-09T08:18:38.143Z,14.85
2022-12-09T08:21:13.409Z,15.25
2022-12-09T08:26:07.521Z,14.73
2022-12-09T08:28:34.298Z,14.85
2022-12-09T08:31:10.597Z,15.23
2022-12-09T08:33:38.429Z,14.63
2022-12-09T08:36:10.889Z,15.48
2022-12-09T08:38:37.713Z,15.32
2022-12-09T08:41:17.595Z,16.00
2022-12-09T08:43:45.038Z,14.70
2022-12-09T08:46:12.018Z,15.85
2022-12-09T08:48:40.845Z,15.75
2022-12-09T08:51:09.362Z,15.35
2022-12-09T08:53:35.928Z,16.65
2022-12-09T08:56:13.835Z,15.68
2022-12-09T08:58:41.438Z,16.02
2022-12-09T09:01:14.167Z,16.50
2022-12-09T09:03:41.675Z,15.80
2022-12-09T09:06:10.777Z,16.60
2022-12-09T09:08:39.184Z,16.75
2022-12-09T09:11:11.503Z,16.30
2022-12-09T09:13:39.940Z,16.65
2022-12-09T09:16:16.715Z,17.58
2022-12-09T09:18:44.590Z,17.23
2022-12-09T09:21:13.962Z,16.50
2022-12-09T09:23:42.104Z,17.08
2022-12-09T09:26:17.179Z,17.00
2022-12-09T09:28:44.562Z,16.98
2022-12-09T09:31:13.542Z,18.25
2022-12-09T09:33:40.701Z,17.77
2022-12-09T09:36:11.639Z,17.33
2022-12-09T09:38:38.485Z,17.33
2022-12-09T09:41:34.166Z,16.77
2022-12-09T09:44:01.968Z,16.83
2022-12-09T09:46:38.761Z,17.88
2022-12-09T09:49:10.492Z,17.33
2022-12-09T09:51:37.386Z,17.67
2022-12-09T09:54:08.743Z,16.88
2022-12-09T09:56:43.811Z,18.35
2022-12-09T09:59:39.489Z,18.30
2022-12-09T10:05:07.539Z,17.05
2022-12-09T10:07:48.904Z,17.67
2022-12-09T10:10:32.414Z,17.67
2022-12-09T10:13:18.598Z,18.35
2022-12-09T10:16:14.346Z,19.10
2022-12-09T10:19:07.677Z,18.65
2022-12-09T10:21:41.066Z,18.05
2022-12-09T10:24:20.034Z,18.55
2022-12-09T10:26:57.058Z,17.77
2022-12-09T10:29:43.383Z,17.08
2022-12-09T10:32:17.100Z,17.05
2022-12-09T10:34:44.204Z,17.33
2022-12-09T10:37:25.857Z,16.73
2022-12-09T10:40:15.985Z,16.70
2022-12-09T10:43:10.269Z,16.33
2022-12-09T10:48:47.566Z,17.45
2022-12-09T10:51:16.620Z,16.52
2022-12-09T10:54:21.875Z,16.25
2022-12-09T10:57:12.503Z,15.90
2022-12-09T10:59:40.907Z,14.13
2022-12-09T11:02:11.088Z,13.70
2022-12-09T11:04:44.264Z,14.07
2022-12-09T11:07:25.408Z,14.75
2022-12-09T11:09:58.774Z,12.95
2022-12-09T11:12:30.976Z,12.38
2022-12-09T11:15:24.157Z,12.20
2022-12-09T11:18:25.671Z,12.38
2022-12-09T11:21:01.169Z,12.10
2022-12-09T11:23:29.398Z,12.25
2022-12-09T11:25:58.844Z,10.40
2022-12-09T11:28:33.025Z,11.85
2022-12-09T11:31:33.959Z,10.13
2022-12-09T11:34:02.745Z,10.55
2022-12-09T11:36:44.059Z,9.73
2022-12-09T11:39:25.395Z,9.32
2022-12-09T11:42:17.041Z,10.00
2022-12-09T11:44:58.237Z,10.50
2022-12-09T11:47:50.488Z,10.32
2022-12-09T11:50:25.833Z,10.52
2022-12-09T11:53:23.544Z,11.00
2022-12-09T11:55:56.367Z,9.60
2022-12-09T11:58:30.660Z,9.38
2022-12-09T12:01:05.725Z,8.60
2022-12-09T12:03:41.282Z,8.27
2022-12-09T12:06:22.546Z,8.38
2022-12-09T12:09:31.271Z,8.02
2022-12-09T12:12:02.806Z,8.05
2022-12-09T12:14:30.322Z,9.45
2022-12-09T12:17:15.452Z,9.23
2022-12-09T12:19:45.434Z,9.40
2022-12-09T12:22:33.027Z,9.10
2022-12-09T12:25:28.941Z,9.10
2022-12-09T12:28:17.225Z,7.82
2022-12-09T12:30:58.468Z,6.63
2022-12-09T12:34:07.856Z,6.05
2022-12-09T12:36:55.956Z,6.18
2022-12-09T12:39:22.286Z,6.35
2022-12-09T12:42:29.915Z,6.93
2022-12-09T12:45:36.336Z,7.25
2022-12-09T12:48:41.907Z,7.28
2022-12-09T12:51:15.085Z,7.88
2022-12-09T12:53:52.798Z,7.75
2022-12-09T12:56:30.385Z,8.43
2022-12-09T12:59:07.675Z,8.00
2022-12-09T13:01:51.209Z,7.88
2022-12-09T13:04:24.005Z,8.80
2022-12-09T13:07:15.311Z,8.65
2022-12-09T13:09:56.241Z,8.73
2022-12-09T13:12:45.635Z,9.25
2022-12-09T13:15:16.329Z,9.55
2022-12-09T13:17:46.213Z,11.15
2022-12-09T13:20:23.742Z,9.05
2022-12-09T13:23:15.664Z,8.30
2022-12-09T13:25:56.659Z,9.30
2022-12-09T13:28:43.867Z,8.57
2022-12-09T13:31:10.604Z,9.23
2022-12-09T13:33:43.139Z,8.15
2022-12-09T13:36:22.716Z,7.80
2022-12-09T13:38:49.624Z,8.90
2022-12-09T13:41:31.443Z,8.77
2022-12-09T13:44:12.709Z,9.35
2022-12-09T13:46:42.712Z,8.88
2022-12-09T13:49:18.237Z,9.07
2022-12-09T13:51:52.997Z,8.93
2022-12-09T13:54:30.123Z,10.77
2022-12-09T13:57:23.733Z,9.98
2022-12-09T13:59:56.036Z,10.05
2022-12-09T14:02:28.402Z,9.35
2022-12-09T14:05:05.852Z,9.77
2022-12-09T14:07:39.250Z,8.75
2022-12-09T14:10:06.655Z,8.90
2022-12-09T14:12:33.150Z,9.05
2022-12-09T14:15:19.391Z,9.82
2022-12-09T14:17:46.300Z,10.25
2022-12-09T14:20:32.579Z,10.18
2022-12-09T14:23:03.726Z,9.75
2022-12-09T14:25:33.503Z,10.57
2022-12-09T14:28:11.881Z,10.02
2022-12-09T14:30:49.897Z,8.85
2022-12-09T14:33:23.739Z,9.43
2022-12-09T14:36:01.354Z,9.88
2022-12-09T14:38:42.129Z,10.50
2022-12-09T14:41:29.791Z,10.32
2022-12-09T14:44:18.859Z,9.98
2022-12-09T14:46:49.776Z,11.63
2022-12-09T14:49:25.195Z,11.60
2022-12-09T14:52:01.610Z,10.65
2022-12-09T14:54:35.983Z,10.88
2022-12-09T14:57:17.528Z,12.07
2022-12-09T14:59:52.172Z,11.90
2022-12-09T15:02:27.095Z,11.73
2022-12-09T15:04:54.601Z,12.07
2022-12-09T15:07:25.103Z,12.13
2022-12-09T15:10:01.870Z,12.30
2022-12-09T15:12:50.204Z,12.07
2022-12-09T15:15:25.355Z,12.00
2022-12-09T15:20:42.293Z,11.27
2022-12-09T15:23:20.603Z,12.73
2022-12-09T15:25:56.042Z,12.10
2022-12-09T15:28:26.827Z,11.65
2022-12-09T15:31:21.425Z,12.25
2022-12-09T15:33:51.845Z,11.82
2022-12-09T15:36:40.044Z,11.68
2022-12-09T15:39:21.305Z,12.20
2022-12-09T15:42:08.178Z,12.13
2022-12-09T15:44:48.189Z,11.63
2022-12-09T15:47:30.017Z,13.25
2022-12-09T15:50:04.459Z,12.25
2022-12-09T15:52:38.175Z,12.93
2022-12-09T15:55:07.275Z,13.15
2022-12-09T15:57:35.611Z,13.35
2022-12-09T16:00:03.606Z,12.13
2022-12-09T16:02:34.735Z,13.63
2022-12-09T16:05:05.447Z,13.07
2022-12-09T16:07:32.868Z,12.55
2022-12-09T16:10:16.930Z,12.23
2022-12-09T16:12:43.954Z,13.10
2022-12-09T16:15:13.632Z,13.38
2022-12-09T16:17:54.914Z,14.20
2022-12-09T16:20:36.334Z,14.35
2022-12-09T16:23:04.738Z,12.95
2022-12-09T16:25:42.928Z,13.85
2022-12-09T16:28:23.595Z,13.68
2022-12-09T16:30:55.038Z,14.68
2022-12-09T16:33:24.217Z,14.40
2022-12-09T16:36:02.539Z,14.70
2022-12-09T16:38:30.986Z,15.25
2022-12-09T16:41:01.809Z,15.02
2022-12-09T16:43:30.325Z,14.70
2022-12-09T16:46:19.425Z,14.88
2022-12-09T16:48:48.094Z,13.00
2022-12-09T16:51:17.615Z,13.80
2022-12-09T16:53:45.205Z,14.50
2022-12-09T16:56:26.357Z,14.45
2022-12-09T16:58:53.584Z,14.70
2022-12-09T17:01:22.308Z,14.07
2022-12-09T17:03:53.565Z,15.57
2022-12-09T17:06:20.796Z,15.05
2022-12-09T17:08:47.228Z,14.27
2022-12-09T17:11:14.510Z,15.32
2022-12-09T17:13:40.969Z,14.13
2022-12-09T17:16:08.051Z,13.75
2022-12-09T17:18:35.339Z,13.25
2022-12-09T17:21:12.781Z,13.70
2022-12-09T17:23:40.448Z,13.80
2022-12-09T17:26:10.790Z,14.63
2022-12-09T17:28:38.403Z,13.50
2022-12-09T17:31:14.640Z,15.27
2022-12-09T17:33:41.371Z,14.40
2022-12-09T17:36:08.078Z,15.38
2022-12-09T17:38:34.629Z,14.38
2022-12-09T17:41:16.067Z,14.30
2022-12-09T17:43:43.144Z,14.77
2022-12-09T17:46:10.424Z,14.02
2022-12-09T17:48:37.029Z,14.57
2022-12-09T17:51:09.118Z,13.95
2022-12-09T17:53:37.226Z,15.13
2022-12-09T17:56:12.307Z,14.70
2022-12-09T17:58:40.162Z,15.05
2022-12-09T18:01:17.215Z,15.93
2022-12-09T18:04:04.350Z,15.95
2022-12-09T18:06:34.766Z,15.07
2022-12-09T18:09:03.903Z,14.90
2022-12-09T18:11:30.402Z,15.98
2022-12-09T18:13:56.807Z,16.25
2022-12-09T18:16:23.457Z,16.20
2022-12-09T18:18:50.429Z,15.52
2022-12-09T18:21:19.498Z,15.82
2022-12-09T18:23:46.483Z,16.60
2022-12-09T18:26:15.294Z,17.52
2022-12-09T18:28:42.132Z,21.13
2022-12-09T18:31:11.202Z,20.35
2022-12-09T18:33:38.734Z,19.33
2022-12-09T18:36:10.903Z,18.35
2022-12-09T18:38:38.262Z,20.92
2022-12-09T18:41:05.039Z,20.50
2022-12-09T18:43:35.990Z,19.00
2022-12-09T18:46:08.719Z,18.23
2022-12-09T18:48:35.774Z,18.10
2022-12-09T18:51:02.126Z,18.02
2022-12-09T18:53:29.024Z,18.48
2022-12-09T18:55:55.407Z,18.35
2022-12-09T18:58:36.831Z,17.60
2022-12-09T19:01:21.088Z,18.42
2022-12-09T19:03:48.132Z,17.73
2022-12-09T19:06:23.456Z,17.27
2022-12-09T19:08:55.228Z,16.73
2022-12-09T19:11:23.934Z,18.40
2022-12-09T19:13:50.418Z,18.77
2022-12-09T19:16:16.873Z,18.02
2022-12-09T19:18:43.658Z,18.98
2022-12-09T19:21:18.229Z,18.02
2022-12-09T19:23:46.872Z,18.55
2022-12-09T19:26:24.364Z,18.80
2022-12-09T19:28:53.285Z,18.33
2022-12-09T19:31:28.219Z,19.77
2022-12-09T19:34:03.846Z,18.90
2022-12-09T19:36:33.832Z,19.70
2022-12-09T19:39:01.528Z,18.90
2022-12-09T19:41:28.375Z,20.98
2022-12-09T19:43:55.947Z,20.80
2022-12-09T19:46:22.816Z,19.33
2022-12-09T19:48:49.394Z,19.65
2022-12-09T19:51:18.040Z,21.13
2022-12-09T19:53:45.193Z,22.95
2022-12-09T19:56:18.102Z,21.40
2022-12-09T19:58:45.449Z,21.02
2022-12-09T20:01:23.921Z,22.95
2022-12-09T20:03:55.929Z,23.77
2022-12-09T20:06:22.661Z,23.88
2022-12-09T20:08:49.131Z,24.25
2022-12-09T20:11:21.259Z,25.45
2022-12-09T20:13:48.250Z,25.67
2022-12-09T20:16:18.017Z,26.73
2022-12-09T20:18:45.377Z,25.50
2022-12-09T20:21:13.372Z,26.33
2022-12-09T20:23:41.150Z,26.95
2022-12-09T20:26:12.239Z,26.17
2022-12-09T20:28:40.879Z,25.52
2022-12-09T20:31:11.458Z,26.42
2022-12-09T20:33:38.321Z,26.17
2022-12-09T20:36:14.233Z,26.30
2022-12-09T20:38:40.686Z,26.48
2022-12-09T20:41:12.475Z,26.88
2022-12-09T20:43:44.461Z,26.40
2022-12-09T20:46:13.448Z,26.63
2022-12-09T20:48:40.435Z,25.65
2022-12-09T20:51:09.951Z,26.60
2022-12-09T20:53:36.725Z,25.48
2022-12-09T20:56:04.151Z,27.52
2022-12-09T20:58:30.640Z,26.92
2022-12-09T21:01:04.629Z,26.35
2022-12-09T21:03:31.031Z,27.75
2022-12-09T21:05:58.428Z,26.70
2022-12-09T21:08:29.918Z,26.52
2022-12-09T21:11:06.182Z,26.48
2022-12-09T21:13:36.203Z,26.70
2022-12-09T21:16:16.025Z,26.80
2022-12-09T21:18:43.669Z,27.10
2022-12-09T21:21:10.363Z,24.60
2022-12-09T21:23:37.487Z,25.70
2022-12-09T21:26:06.281Z,26.00
2022-12-09T21:28:33.505Z,27.65
2022-12-09T21:31:05.739Z,25.88
2022-12-09T21:33:32.148Z,25.10
2022-12-09T21:35:59.067Z,25.75
2022-12-09T21:38:25.454Z,24.48
2022-12-09T21:40:52.162Z,26.50
2022-12-09T21:43:18.513Z,25.70
2022-12-09T21:45:44.917Z,24.60
2022-12-09T21:48:14.747Z,24.90
2022-12-09T21:50:41.237Z,25.27
2022-12-09T21:53:07.635Z,23.42
2022-12-09T21:55:34.314Z,25.05
2022-12-09T21:58:00.692Z,25.42
2022-12-09T22:00:27.143Z,23.90
2022-12-09T22:02:54.388Z,24.35
2022-12-09T22:05:20.893Z,24.35
2022-12-09T22:07:50.143Z,25.17
2022-12-09T22:10:16.675Z,22.98
2022-12-09T22:12:45.966Z,23.27
2022-12-09T22:15:12.638Z,23.40
2022-12-09T22:17:39.233Z,24.73
2022-12-09T22:20:49.176Z,23.73
2022-12-09T22:22:55.299Z,24.55
2022-12-09T22:25:21.762Z,25.55
2022-12-09T22:27:48.124Z,24.95
2022-12-09T22:30:14.543Z,24.25
2022-12-09T22:32:43.491Z,25.10
2022-12-09T22:35:12.172Z,24.58
2022-12-09T22:37:45.606Z,25.75
2022-12-09T22:40:12.344Z,25.77
2022-12-09T22:42:38.785Z,25.15
2022-12-09T22:45:05.968Z,25.70
2022-12-09T22:47:32.693Z,26.35
2022-12-09T22:49:59.143Z,23.40
2022-12-09T22:52:25.474Z,22.63
2022-12-09T22:54:51.828Z,24.25
2022-12-09T22:57:18.210Z,24.85
2022-12-09T22:59:44.635Z,24.70
2022-12-09T23:02:11.130Z,23.08
2022-12-09T23:04:37.533Z,23.45
2022-12-09T23:07:03.945Z,24.35
2022-12-09T23:09:30.326Z,24.27
2022-12-09T23:11:56.723Z,25.10
2022-12-09T23:14:23.141Z,24.35
2022-12-09T23:16:49.625Z,23.60
2022-12-09T23:19:16.006Z,24.23
2022-12-09T23:21:43.091Z,24.33
2022-12-09T23:24:20.985Z,22.83
2022-12-09T23:26:49.129Z,24.17
2022-12-09T23:29:16.159Z,24.23
2022-12-09T23:31:43.443Z,24.02
2022-12-09T23:34:12.075Z,23.85
2022-12-09T23:36:41.034Z,23.98
2022-12-09T23:39:11.324Z,22.02
2022-12-09T23:41:39.390Z,22.35
2022-12-09T23:44:11.030Z,23.25
2022-12-09T23:46:37.818Z,23.13
2022-12-09T23:49:05.111Z,22.42
2022-12-09T23:51:33.013Z,23.63
2022-12-09T23:54:02.218Z,23.85
2022-12-09T23:56:31.876Z,24.58
2022-12-09T23:59:04.136Z,23.13
